createdAt,value
2019-04-27T00:00:50.306Z,34.50
2019-04-27T00:03:20.453Z,34.52
2019-04-27T00:05:53.559Z,34.37
2019-04-27T00:08:39.490Z,34.17
2019-04-27T00:11:19.943Z,34.57
2019-04-27T00:13:47.918Z,34.03
2019-04-27T00:16:40.453Z,34.11
2019-04-27T00:19:17.271Z,34.35
2019-04-27T00:21:52.928Z,33.40
2019-04-27T00:24:20.981Z,34.50
2019-04-27T00:26:49.320Z,34.41
2019-04-27T00:29:17.262Z,34.29
2019-04-27T00:31:45.330Z,33.47
2019-04-27T00:34:15.105Z,34.68
2019-04-27T00:37:00.886Z,34.16
2019-04-27T00:39:43.287Z,33.91
2019-04-27T00:42:13.296Z,33.63
2019-04-27T00:44:42.880Z,33.33
2019-04-27T00:47:10.770Z,33.83
2019-04-27T00:49:39.066Z,33.70
2019-04-27T00:52:06.898Z,33.32
2019-04-27T00:54:35.467Z,33.72
2019-04-27T00:57:13.096Z,33.79
2019-04-27T00:59:54.824Z,32.99
2019-04-27T01:02:33.493Z,34.41
2019-04-27T01:05:03.737Z,33.08
2019-04-27T01:07:33.462Z,34.13
2019-04-27T01:10:03.020Z,34.59
2019-04-27T01:12:31.540Z,33.42
2019-04-27T01:14:59.543Z,33.40
2019-04-27T01:17:28.865Z,34.63
2019-04-27T01:19:56.897Z,33.37
2019-04-27T01:22:25.146Z,33.88
2019-04-27T01:24:53.116Z,34.46
2019-04-27T01:27:39.387Z,34.79
2019-04-27T01:30:14.250Z,33.79
2019-04-27T01:32:42.164Z,33.77
2019-04-27T01:35:10.440Z,34.17
2019-04-27T01:37:38.970Z,33.54
2019-04-27T01:40:07.312Z,33.73
2019-04-27T01:42:35.141Z,33.88
2019-04-27T01:45:03.117Z,34.45
2019-04-27T01:47:31.181Z,33.71
2019-04-27T01:49:59.239Z,34.05
2019-04-27T01:52:27.278Z,33.79
2019-04-27T01:54:55.496Z,33.29
2019-04-27T01:57:23.422Z,35.11
2019-04-27T01:59:51.301Z,33.21
2019-04-27T02:02:33.087Z,34.05
2019-04-27T02:05:19.030Z,33.45
2019-04-27T02:07:46.994Z,34.88
2019-04-27T02:10:14.938Z,33.67
2019-04-27T02:12:44.067Z,34.35
2019-04-27T02:15:12.525Z,33.33
2019-04-27T02:17:40.665Z,33.86
2019-04-27T02:20:09.724Z,33.83
2019-04-27T02:22:38.467Z,33.68
2019-04-27T02:25:06.432Z,34.10
2019-04-27T02:27:35.596Z,33.84
2019-04-27T02:30:30.614Z,33.40
2019-04-27T02:33:16.020Z,33.69
2019-04-27T02:35:44.028Z,33.89
2019-04-27T02:38:11.967Z,33.96
2019-04-27T02:40:52.839Z,33.59
2019-04-27T02:43:22.812Z,34.35
2019-04-27T02:45:50.908Z,33.79
2019-04-27T02:48:19.930Z,34.11
2019-04-27T02:50:50.074Z,34.28
2019-04-27T02:53:19.803Z,34.39
2019-04-27T02:55:49.992Z,34.27
2019-04-27T02:58:21.229Z,33.81
2019-04-27T03:00:50.077Z,34.09
2019-04-27T03:03:20.132Z,33.71
2019-04-27T03:05:50.060Z,33.92
2019-04-27T03:08:19.845Z,33.15
2019-04-27T03:10:47.152Z,33.83
2019-04-27T03:13:25.772Z,34.04
2019-04-27T03:16:03.100Z,34.45
2019-04-27T03:18:36.253Z,34.01
2019-04-27T03:21:07.386Z,34.17
2019-04-27T03:23:35.765Z,34.40
2019-04-27T03:26:10.633Z,34.30
2019-04-27T03:28:40.248Z,34.43
2019-04-27T03:31:12.663Z,34.59
2019-04-27T03:33:42.338Z,33.79
2019-04-27T03:36:12.487Z,34.20
2019-04-27T03:38:39.452Z,34.27
2019-04-27T03:41:09.353Z,34.58
2019-04-27T03:43:36.833Z,34.94
2019-04-27T03:46:04.730Z,34.63
2019-04-27T03:48:32.726Z,34.76
2019-04-27T03:51:19.940Z,34.71
2019-04-27T03:54:10.832Z,33.59
2019-04-27T03:56:59.106Z,34.48
2019-04-27T03:59:32.607Z,34.68
2019-04-27T04:02:02.395Z,34.29
2019-04-27T04:04:32.794Z,34.09
2019-04-27T04:07:09.710Z,34.37
2019-04-27T04:09:41.214Z,34.51
2019-04-27T04:12:14.573Z,34.36
2019-04-27T04:14:43.014Z,34.19
2019-04-27T04:17:13.253Z,34.75
2019-04-27T04:19:54.528Z,34.93
2019-04-27T04:22:10.999Z,31.87
2019-04-27T04:24:39.752Z,34.84
2019-04-27T04:27:09.927Z,34.82
2019-04-27T04:29:39.446Z,34.53
2019-04-27T04:32:07.461Z,35.02
2019-04-27T04:34:35.617Z,34.81
2019-04-27T04:37:03.698Z,34.65
2019-04-27T04:39:31.599Z,34.94
2019-04-27T04:42:30.409Z,35.11
2019-04-27T04:45:20.401Z,34.95
2019-04-27T04:47:52.640Z,34.15
2019-04-27T04:50:22.747Z,34.22
2019-04-27T04:52:50.445Z,35.12
2019-04-27T04:55:20.316Z,34.96
2019-04-27T04:57:49.331Z,35.21
2019-04-27T05:00:19.756Z,35.28
2019-04-27T05:02:47.102Z,34.73
2019-04-27T05:05:15.003Z,34.65
2019-04-27T05:07:42.810Z,35.37
2019-04-27T05:10:10.762Z,34.93
2019-04-27T05:12:39.424Z,35.11
2019-04-27T05:15:08.977Z,34.98
2019-04-27T05:17:37.006Z,35.34
2019-04-27T05:20:26.289Z,35.28
2019-04-27T05:22:52.128Z,35.09
2019-04-27T05:25:20.146Z,35.23
2019-04-27T05:27:49.419Z,35.35
2019-04-27T05:30:17.490Z,34.83
2019-04-27T05:32:45.508Z,34.82
2019-04-27T05:35:13.463Z,34.70
2019-04-27T05:37:44.284Z,35.33
2019-04-27T05:40:11.249Z,34.92
2019-04-27T05:42:39.721Z,34.41
2019-04-27T05:45:25.549Z,34.29
2019-04-27T05:47:58.977Z,35.29
2019-04-27T05:50:37.620Z,35.11
2019-04-27T05:52:57.263Z,35.24
2019-04-27T05:55:25.267Z,35.11
2019-04-27T05:57:53.168Z,34.86
2019-04-27T06:00:21.638Z,35.03
2019-04-27T06:02:49.664Z,35.56
2019-04-27T06:05:19.011Z,34.99
2019-04-27T06:07:48.717Z,35.76
2019-04-27T06:10:16.789Z,35.56
2019-04-27T06:12:44.866Z,35.71
2019-04-27T06:15:12.771Z,35.81
2019-04-27T06:17:40.794Z,35.67
2019-04-27T06:20:09.151Z,35.66
2019-04-27T06:22:39.050Z,35.53
2019-04-27T06:25:06.985Z,35.67
2019-04-27T06:27:34.925Z,35.63
2019-04-27T06:30:04.883Z,35.42
2019-04-27T06:32:32.574Z,35.62
2019-04-27T06:35:00.610Z,35.55
2019-04-27T06:37:29.328Z,35.65
2019-04-27T06:39:59.409Z,35.63
2019-04-27T06:42:29.439Z,35.71
2019-04-27T06:44:57.141Z,35.46
2019-04-27T06:47:25.458Z,35.74
2019-04-27T06:49:53.446Z,35.75
2019-04-27T06:52:21.824Z,35.70
2019-04-27T06:54:50.039Z,35.87
2019-04-27T06:57:19.228Z,36.02
2019-04-27T06:59:48.399Z,35.89
2019-04-27T07:02:16.959Z,35.71
2019-04-27T07:04:44.979Z,35.91
2019-04-27T07:07:13.069Z,35.94
2019-04-27T07:09:41.249Z,35.85
2019-04-27T07:12:09.237Z,36.08
2019-04-27T07:14:50.331Z,36.10
2019-04-27T07:17:06.772Z,35.97
2019-04-27T07:19:34.982Z,35.76
2019-04-27T07:22:02.928Z,35.86
2019-04-27T07:24:30.960Z,35.84
2019-04-27T07:26:59.645Z,35.87
2019-04-27T07:29:29.268Z,35.86
2019-04-27T07:31:59.729Z,35.68
2019-04-27T07:34:28.651Z,35.57
2019-04-27T07:36:59.215Z,35.72
2019-04-27T07:39:29.365Z,35.29
2019-04-27T07:41:58.578Z,35.25
2019-04-27T07:44:51.804Z,35.42
2019-04-27T07:47:31.091Z,35.01
2019-04-27T07:49:59.287Z,34.79
2019-04-27T07:52:28.906Z,34.32
2019-04-27T07:54:58.668Z,35.03
2019-04-27T07:57:26.662Z,35.08
2019-04-27T07:59:54.454Z,34.94
2019-04-27T08:02:22.370Z,35.69
2019-04-27T08:04:50.636Z,35.55
2019-04-27T08:07:19.663Z,35.65
2019-04-27T08:09:49.362Z,35.70
2019-04-27T08:12:18.450Z,35.75
2019-04-27T08:14:49.031Z,35.73
2019-04-27T08:17:19.960Z,35.83
2019-04-27T08:19:49.555Z,35.88
2019-04-27T08:22:19.366Z,35.82
2019-04-27T08:24:49.376Z,35.30
2019-04-27T08:27:42.012Z,34.98
2019-04-27T08:30:29.390Z,34.93
2019-04-27T08:32:59.235Z,35.52
2019-04-27T08:35:29.462Z,35.33
2019-04-27T08:37:56.977Z,34.95
2019-04-27T08:40:24.968Z,34.63
2019-04-27T08:42:55.545Z,34.97
2019-04-27T08:45:22.659Z,34.98
2019-04-27T08:47:50.960Z,35.09
2019-04-27T08:50:19.163Z,34.80
2019-04-27T08:52:47.296Z,34.97
2019-04-27T08:55:15.570Z,35.23
2019-04-27T08:57:43.428Z,35.52
2019-04-27T09:00:11.292Z,35.53
2019-04-27T09:02:46.365Z,35.06
2019-04-27T09:05:09.630Z,35.58
2019-04-27T09:07:43.365Z,35.65
2019-04-27T09:10:16.428Z,35.76
2019-04-27T09:13:00.188Z,35.63
2019-04-27T09:15:33.178Z,35.59
2019-04-27T09:18:01.439Z,35.63
2019-04-27T09:20:35.648Z,35.72
2019-04-27T09:23:03.542Z,35.61
2019-04-27T09:25:31.602Z,34.84
2019-04-27T09:27:59.827Z,35.55
2019-04-27T09:30:29.613Z,35.07
2019-04-27T09:32:57.369Z,35.26
2019-04-27T09:35:26.452Z,35.23
2019-04-27T09:37:56.206Z,35.36
2019-04-27T09:40:23.950Z,35.51
2019-04-27T09:42:51.973Z,35.69
2019-04-27T09:45:19.747Z,35.40
2019-04-27T09:47:47.519Z,35.19
2019-04-27T09:50:16.193Z,35.01
2019-04-27T09:52:45.845Z,35.04
2019-04-27T09:55:13.944Z,35.27
2019-04-27T09:57:42.118Z,35.38
2019-04-27T10:00:09.905Z,35.32
2019-04-27T10:02:37.871Z,35.32
2019-04-27T10:05:06.492Z,35.17
2019-04-27T10:07:35.832Z,34.76
2019-04-27T10:10:04.258Z,35.51
2019-04-27T10:12:34.337Z,35.55
2019-04-27T10:15:01.539Z,35.55
2019-04-27T10:17:29.424Z,35.63
2019-04-27T10:19:57.303Z,35.66
2019-04-27T10:22:39.901Z,35.81
2019-04-27T10:24:54.789Z,35.54
2019-04-27T10:27:22.806Z,35.50
2019-04-27T10:29:51.058Z,35.50
2019-04-27T10:32:18.852Z,35.58
2019-04-27T10:34:46.717Z,35.68
2019-04-27T10:37:16.055Z,35.70
2019-04-27T10:39:45.879Z,35.64
2019-04-27T10:42:13.902Z,35.75
2019-04-27T10:44:41.984Z,35.30
2019-04-27T10:47:09.785Z,35.76
2019-04-27T10:49:37.661Z,35.74
2019-04-27T10:52:05.967Z,35.89
2019-04-27T10:54:34.212Z,35.98
2019-04-27T10:57:02.090Z,36.06
2019-04-27T10:59:30.069Z,35.67
2019-04-27T11:01:58.065Z,35.64
2019-04-27T11:04:56.743Z,35.89
2019-04-27T11:07:27.417Z,35.64
2019-04-27T11:09:55.191Z,35.62
2019-04-27T11:12:23.050Z,35.21
2019-04-27T11:14:51.168Z,35.31
2019-04-27T11:17:19.114Z,35.58
2019-04-27T11:19:47.076Z,35.54
2019-04-27T11:22:15.989Z,35.67
2019-04-27T11:24:45.833Z,34.13
2019-04-27T11:27:14.192Z,35.81
2019-04-27T11:29:42.174Z,35.73
2019-04-27T11:32:10.314Z,35.78
2019-04-27T11:34:55.908Z,35.78
2019-04-27T11:37:28.946Z,35.83
2019-04-27T11:39:56.718Z,35.66
2019-04-27T11:42:24.481Z,35.69
2019-04-27T11:44:52.412Z,35.72
2019-04-27T11:47:20.254Z,35.70
2019-04-27T11:49:48.144Z,35.59
2019-04-27T11:52:16.034Z,35.71
2019-04-27T11:54:45.652Z,35.45
2019-04-27T11:57:13.959Z,35.84
2019-04-27T11:59:41.986Z,35.86
2019-04-27T12:02:10.034Z,35.76
2019-04-27T12:04:38.058Z,35.82
2019-04-27T12:07:06.529Z,35.77
2019-04-27T12:09:34.622Z,35.98
2019-04-27T12:12:13.500Z,35.96
2019-04-27T12:14:32.258Z,35.94
2019-04-27T12:17:00.242Z,35.93
2019-04-27T12:19:28.118Z,35.92
2019-04-27T12:21:56.490Z,35.72
2019-04-27T12:24:24.528Z,35.92
2019-04-27T12:26:59.452Z,35.69
2019-04-27T12:29:47.280Z,35.88
2019-04-27T12:32:15.679Z,35.43
2019-04-27T12:34:43.728Z,35.19
2019-04-27T12:37:11.932Z,34.27
2019-04-27T12:39:39.942Z,34.57
2019-04-27T12:42:07.913Z,35.21
2019-04-27T12:44:40.391Z,35.24
2019-04-27T12:47:06.258Z,34.70
2019-04-27T12:49:36.133Z,34.82
2019-04-27T12:52:05.776Z,34.93
2019-04-27T12:54:39.164Z,33.92
2019-04-27T12:57:20.982Z,34.68
2019-04-27T12:59:57.209Z,34.92
2019-04-27T13:02:28.109Z,35.19
2019-04-27T13:04:56.764Z,35.03
2019-04-27T13:07:26.058Z,34.69
2019-04-27T13:09:54.070Z,34.81
2019-04-27T13:12:22.056Z,34.67
2019-04-27T13:14:49.938Z,34.86
2019-04-27T13:17:17.829Z,34.84
2019-04-27T13:19:46.097Z,35.06
2019-04-27T13:22:13.894Z,33.86
2019-04-27T13:24:41.656Z,34.29
2019-04-27T13:27:09.593Z,33.44
2019-04-27T13:29:37.592Z,32.78
2019-04-27T13:32:06.051Z,33.10
2019-04-27T13:34:34.142Z,33.36
2019-04-27T13:37:03.623Z,33.47
2019-04-27T13:39:31.613Z,33.69
2019-04-27T13:42:00.122Z,32.34
2019-04-27T13:44:28.140Z,34.08
2019-04-27T13:47:18.725Z,33.71
2019-04-27T13:50:04.392Z,33.84
2019-04-27T13:52:33.048Z,33.78
2019-04-27T13:55:00.948Z,33.99
2019-04-27T13:57:28.951Z,34.00
2019-04-27T13:59:56.824Z,33.81
2019-04-27T14:02:30.209Z,34.12
2019-04-27T14:04:54.512Z,34.89
2019-04-27T14:07:22.296Z,34.17
2019-04-27T14:09:50.491Z,33.52
2019-04-27T14:12:21.907Z,33.98
2019-04-27T14:14:52.245Z,34.84
2019-04-27T14:17:20.142Z,35.06
2019-04-27T14:19:48.268Z,34.93
2019-04-27T14:22:18.105Z,33.18
2019-04-27T14:24:45.759Z,34.03
2019-04-27T14:27:13.741Z,35.16
2019-04-27T14:29:41.866Z,35.05
2019-04-27T14:32:09.873Z,35.25
2019-04-27T14:34:37.745Z,34.54
2019-04-27T14:37:05.708Z,34.84
2019-04-27T14:39:33.594Z,33.35
2019-04-27T14:42:01.586Z,34.82
2019-04-27T14:44:29.758Z,34.65
2019-04-27T14:46:58.325Z,34.52
2019-04-27T14:49:26.371Z,34.97
2019-04-27T14:51:54.438Z,34.94
2019-04-27T14:54:22.514Z,33.96
2019-04-27T14:56:50.556Z,34.93
2019-04-27T14:59:18.844Z,35.03
2019-04-27T15:01:48.665Z,34.88
2019-04-27T15:04:16.663Z,35.14
2019-04-27T15:06:45.641Z,34.73
2019-04-27T15:09:17.989Z,35.05
2019-04-27T15:11:44.992Z,34.98
2019-04-27T15:14:16.258Z,34.76
2019-04-27T15:16:47.073Z,34.90
2019-04-27T15:19:19.344Z,33.94
2019-04-27T15:21:56.476Z,34.77
2019-04-27T15:24:17.429Z,34.75
2019-04-27T15:26:45.410Z,34.58
2019-04-27T15:29:14.857Z,34.05
2019-04-27T15:31:48.446Z,34.78
2019-04-27T15:34:35.683Z,34.96
2019-04-27T15:37:34.031Z,34.98
2019-04-27T15:40:35.552Z,34.96
2019-04-27T15:43:27.418Z,35.08
2019-04-27T15:45:57.771Z,34.61
2019-04-27T15:48:29.782Z,35.09
2019-04-27T15:50:54.951Z,35.00
2019-04-27T15:53:22.962Z,35.09
2019-04-27T15:55:53.747Z,34.02
2019-04-27T15:58:24.927Z,34.70
2019-04-27T16:00:56.279Z,34.80
2019-04-27T16:03:22.692Z,35.08
2019-04-27T16:05:49.667Z,34.91
2019-04-27T16:08:18.767Z,34.25
2019-04-27T16:10:48.600Z,28.24
2019-04-27T16:13:18.204Z,26.08
2019-04-27T16:15:48.100Z,24.37
2019-04-27T16:18:16.028Z,23.61
2019-04-27T16:20:43.931Z,23.70
2019-04-27T16:23:11.822Z,24.12
2019-04-27T16:25:48.251Z,26.12
2019-04-27T16:28:13.216Z,26.39
2019-04-27T16:30:39.556Z,29.95
2019-04-27T16:33:08.671Z,31.51
2019-04-27T16:35:38.640Z,31.79
2019-04-27T16:38:33.638Z,31.90
2019-04-27T16:41:03.361Z,31.84
2019-04-27T16:43:32.660Z,30.36
2019-04-27T16:46:04.450Z,31.47
2019-04-27T16:48:34.368Z,31.39
2019-04-27T16:51:00.767Z,32.14
2019-04-27T16:53:30.174Z,31.34
2019-04-27T16:56:14.212Z,31.73
2019-04-27T16:58:39.171Z,32.73
2019-04-27T17:01:10.549Z,32.54
2019-04-27T17:03:38.925Z,33.12
2019-04-27T17:06:07.822Z,33.13
2019-04-27T17:08:39.186Z,32.74
2019-04-27T17:11:11.476Z,33.66
2019-04-27T17:13:39.268Z,33.63
2019-04-27T17:16:24.654Z,33.59
2019-04-27T17:19:04.928Z,33.64
2019-04-27T17:21:33.295Z,34.13
2019-04-27T17:24:02.897Z,34.22
2019-04-27T17:26:29.289Z,31.84
2019-04-27T17:29:03.182Z,33.42
2019-04-27T17:31:32.770Z,33.85
2019-04-27T17:34:01.826Z,34.24
2019-04-27T17:36:29.941Z,33.25
2019-04-27T17:38:58.422Z,33.78
2019-04-27T17:41:28.338Z,32.38
2019-04-27T17:43:56.651Z,32.41
2019-04-27T17:46:24.654Z,32.41
2019-04-27T17:48:52.670Z,34.53
2019-04-27T17:51:20.595Z,34.53
2019-04-27T17:53:50.043Z,34.53
2019-04-27T17:56:18.538Z,34.52
2019-04-27T17:58:48.613Z,34.15
2019-04-27T18:01:19.105Z,34.31
2019-04-27T18:03:46.034Z,34.77
2019-04-27T18:06:13.815Z,34.83
2019-04-27T18:08:41.823Z,34.83
2019-04-27T18:11:09.699Z,34.67
2019-04-27T18:13:38.830Z,34.83
2019-04-27T18:16:08.625Z,34.68
2019-04-27T18:19:00.052Z,34.97
2019-04-27T18:21:38.188Z,35.01
2019-04-27T18:24:11.370Z,34.90
2019-04-27T18:26:51.987Z,34.70
2019-04-27T18:29:18.536Z,34.67
2019-04-27T18:31:51.118Z,34.98
2019-04-27T18:34:17.377Z,35.00
2019-04-27T18:36:45.879Z,34.94
2019-04-27T18:39:13.906Z,35.03
2019-04-27T18:41:49.280Z,34.89
2019-04-27T18:44:11.727Z,34.79
2019-04-27T18:46:39.733Z,34.91
2019-04-27T18:49:15.520Z,34.94
2019-04-27T18:51:52.456Z,34.88
2019-04-27T18:54:19.799Z,34.88
2019-04-27T18:57:01.243Z,34.85
2019-04-27T18:59:18.685Z,34.85
2019-04-27T19:01:46.599Z,35.05
2019-04-27T19:04:14.573Z,35.02
2019-04-27T19:06:42.440Z,35.10
2019-04-27T19:09:10.943Z,34.97
2019-04-27T19:11:38.897Z,34.44
2019-04-27T19:14:08.348Z,34.94
2019-04-27T19:16:38.195Z,34.94
2019-04-27T19:19:06.197Z,34.84
2019-04-27T19:21:34.354Z,34.90
2019-04-27T19:24:02.285Z,34.90
2019-04-27T19:26:41.878Z,35.00
2019-04-27T19:29:34.795Z,34.90
2019-04-27T19:32:03.229Z,34.89
2019-04-27T19:34:31.135Z,35.00
2019-04-27T19:36:59.334Z,34.94
2019-04-27T19:39:28.600Z,34.84
2019-04-27T19:42:01.414Z,35.09
2019-04-27T19:44:26.656Z,35.06
2019-04-27T19:46:54.562Z,35.03
2019-04-27T19:49:22.449Z,35.05
2019-04-27T19:51:50.218Z,35.17
2019-04-27T19:54:18.206Z,35.07
2019-04-27T19:56:46.433Z,35.12
2019-04-27T19:59:24.925Z,34.98
2019-04-27T20:01:53.980Z,35.01
2019-04-27T20:04:28.087Z,34.25
2019-04-27T20:06:55.984Z,35.01
2019-04-27T20:09:32.236Z,34.97
2019-04-27T20:12:00.804Z,34.98
2019-04-27T20:14:31.097Z,34.99
2019-04-27T20:16:59.028Z,34.80
2019-04-27T20:19:27.008Z,34.86
2019-04-27T20:21:54.868Z,34.95
2019-04-27T20:24:22.933Z,34.94
2019-04-27T20:26:50.873Z,34.34
2019-04-27T20:29:19.126Z,34.90
2019-04-27T20:31:47.362Z,34.76
2019-04-27T20:34:15.242Z,34.83
2019-04-27T20:36:43.248Z,34.61
2019-04-27T20:39:11.724Z,34.94
2019-04-27T20:41:41.113Z,34.54
2019-04-27T20:44:12.306Z,34.93
2019-04-27T20:46:39.055Z,34.87
2019-04-27T20:49:19.657Z,34.01
2019-04-27T20:52:02.582Z,35.00
2019-04-27T20:54:32.502Z,34.75
2019-04-27T20:57:01.519Z,34.99
2019-04-27T20:59:29.750Z,34.81
2019-04-27T21:02:01.105Z,35.09
2019-04-27T21:04:32.105Z,34.88
2019-04-27T21:07:02.226Z,34.94
2019-04-27T21:09:30.206Z,35.12
2019-04-27T21:11:58.605Z,35.19
2019-04-27T21:14:26.549Z,35.09
2019-04-27T21:16:54.567Z,35.11
2019-04-27T21:19:22.486Z,35.02
2019-04-27T21:21:51.073Z,35.06
2019-04-27T21:24:20.755Z,35.06
2019-04-27T21:26:48.837Z,34.88
2019-04-27T21:29:17.136Z,34.56
2019-04-27T21:31:45.336Z,34.64
2019-04-27T21:34:13.258Z,34.96
2019-04-27T21:36:42.468Z,34.90
2019-04-27T21:39:11.569Z,35.15
2019-04-27T21:41:41.253Z,35.07
2019-04-27T21:44:09.440Z,34.31
2019-04-27T21:46:37.391Z,35.10
2019-04-27T21:49:05.766Z,35.18
2019-04-27T21:51:35.342Z,35.07
2019-04-27T21:54:12.071Z,35.01
2019-04-27T21:56:41.546Z,34.85
2019-04-27T21:59:11.101Z,34.61
2019-04-27T22:01:41.451Z,34.91
2019-04-27T22:04:11.258Z,34.62
2019-04-27T22:06:40.832Z,34.44
2019-04-27T22:09:10.391Z,34.84
2019-04-27T22:11:38.370Z,34.75
2019-04-27T22:14:06.457Z,34.85
2019-04-27T22:16:34.579Z,34.81
2019-04-27T22:19:02.538Z,34.11
2019-04-27T22:21:31.699Z,34.92
2019-04-27T22:24:27.914Z,34.17
2019-04-27T22:26:55.876Z,34.68
2019-04-27T22:29:23.848Z,34.70
2019-04-27T22:31:51.849Z,34.91
2019-04-27T22:34:20.975Z,34.92
2019-04-27T22:36:49.065Z,35.15
2019-04-27T22:39:39.135Z,35.13
2019-04-27T22:42:24.848Z,35.28
2019-04-27T22:44:57.020Z,35.13
2019-04-27T22:47:25.002Z,35.41
2019-04-27T22:49:53.023Z,34.25
2019-04-27T22:52:21.874Z,35.16
2019-04-27T22:54:51.324Z,35.38
2019-04-27T22:57:31.515Z,35.71
2019-04-27T23:00:22.073Z,35.59
2019-04-27T23:02:56.268Z,35.47
2019-04-27T23:05:24.380Z,35.74
2019-04-27T23:07:52.266Z,34.90
2019-04-27T23:10:21.351Z,35.83
2019-04-27T23:12:50.999Z,35.80
2019-04-27T23:15:21.130Z,35.66
2019-04-27T23:17:56.027Z,35.95
2019-04-27T23:20:23.982Z,35.85
2019-04-27T23:22:51.950Z,35.56
2019-04-27T23:25:19.994Z,35.35
2019-04-27T23:27:48.441Z,35.74
2019-04-27T23:30:16.851Z,34.69
2019-04-27T23:32:46.914Z,35.81
2019-04-27T23:35:14.842Z,35.52
2019-04-27T23:37:42.826Z,35.69
2019-04-27T23:40:11.122Z,35.76
2019-04-27T23:42:39.405Z,35.78
2019-04-27T23:45:08.569Z,35.62
2019-04-27T23:47:36.452Z,33.61
2019-04-27T23:50:04.612Z,35.58
2019-04-27T23:52:50.659Z,35.23
2019-04-27T23:55:20.924Z,35.37
2019-04-27T23:57:49.314Z,35.06
